Time;durP1;ratioP1;P1;durP2;ratioP2;P2;SDS_P1;SDS_P2;PMS_P1;PMS_P2;Temp;Humidity;BMP_temperature;BMP_pressure;BME280_temperature;BME280_humidity;BME280_pressure;Samples;Min_cycle;Max_cycle;Signal;HPM_P1;HPM_P2
2023/12/30 00:02:17;;;;;;;2.90;0.43;;;6.80;99.90;;;;;;5030062;28;20040;-73
2023/12/30 00:04:43;;;;;;;0.57;0.35;;;6.80;99.90;;;;;;5030569;28;20065;-73
2023/12/30 00:07:10;;;;;;;0.68;0.43;;;6.90;99.90;;;;;;5033965;28;20053;-73
2023/12/30 00:09:37;;;;;;;1.38;0.20;;;6.90;99.90;;;;;;5030076;28;20417;-73
2023/12/30 00:12:04;;;;;;;2.95;0.60;;;6.90;99.90;;;;;;5026708;28;20038;-73
2023/12/30 00:14:30;;;;;;;1.75;0.50;;;6.90;99.90;;;;;;5030012;28;20450;-73
2023/12/30 00:16:56;;;;;;;0.80;0.43;;;6.90;99.90;;;;;;5013926;28;20144;-74
2023/12/30 00:19:22;;;;;;;5.10;0.40;;;6.80;99.90;;;;;;5027439;28;20440;-74
2023/12/30 00:21:47;;;;;;;5.85;0.95;;;6.80;99.90;;;;;;5014230;28;20128;-73
2023/12/30 00:24:13;;;;;;;5.45;0.70;;;6.70;99.90;;;;;;5014085;28;20099;-73
2023/12/30 00:26:39;;;;;;;2.67;0.52;;;6.70;99.90;;;;;;5030326;28;20043;-73
2023/12/30 00:29:05;;;;;;;0.90;0.52;;;6.70;99.90;;;;;;5033504;28;20481;-74
2023/12/30 00:31:31;;;;;;;3.15;0.40;;;6.70;99.90;;;;;;5030190;28;20048;-75
2023/12/30 00:34:01;;;;;;;2.83;0.50;;;6.60;99.90;;;;;;5014016;28;20155;-73
2023/12/30 00:36:27;;;;;;;0.90;0.20;;;6.70;99.90;;;;;;5030491;28;20045;-74
2023/12/30 00:38:54;;;;;;;2.50;0.45;;;6.60;99.90;;;;;;5021611;28;20399;-73
2023/12/30 00:41:24;;;;;;;0.52;0.30;;;6.60;99.90;;;;;;5026989;28;20464;-74
2023/12/30 00:43:50;;;;;;;;;;;6.50;99.90;;;;;;5017910;28;20440;-74
2023/12/30 00:46:19;;;;;;;3.83;0.75;;;6.50;99.90;;;;;;5029436;28;19992;-74
2023/12/30 00:48:45;;;;;;;5.57;1.00;;;6.40;99.90;;;;;;5033420;28;20092;-74
2023/12/30 00:51:28;;;;;;;8.43;0.73;;;6.40;99.90;;;;;;5030140;28;20500;-73
2023/12/30 00:53:54;;;;;;;0.57;0.57;;;6.30;99.90;;;;;;5040623;28;20485;-74
2023/12/30 00:56:20;;;;;;;2.45;0.30;;;6.30;99.90;;;;;;5034039;28;20088;-73
2023/12/30 00:58:55;;;;;;;1.65;0.22;;;6.20;99.90;;;;;;5038182;28;20056;-74
2023/12/30 01:01:21;;;;;;;4.22;0.77;;;6.20;99.90;;;;;;5033635;28;20107;-73
2023/12/30 01:03:47;;;;;;;0.65;0.50;;;6.10;99.90;;;;;;5015775;28;20040;-74
2023/12/30 01:06:12;;;;;;;6.47;0.65;;;6.10;99.90;;;;;;5037661;28;20034;-73
2023/12/30 01:08:38;;;;;;;5.78;0.65;;;6.10;99.90;;;;;;5032820;28;20054;-73
2023/12/30 01:11:04;;;;;;;1.00;0.30;;;6.10;99.90;;;;;;5033902;28;20056;-74
2023/12/30 01:13:30;;;;;;;0.10;0.10;;;6.20;99.90;;;;;;5033763;28;20084;-74
2023/12/30 01:15:56;;;;;;;5.88;0.50;;;6.10;99.90;;;;;;5033340;28;20413;-73
2023/12/30 01:18:22;;;;;;;2.60;0.30;;;6.10;99.90;;;;;;5040393;28;20037;-74
2023/12/30 01:20:47;;;;;;;1.77;0.43;;;6.10;99.90;;;;;;5037633;28;20064;-74
2023/12/30 01:23:14;;;;;;;0.30;0.20;;;6.10;99.90;;;;;;5033519;28;20099;-72
2023/12/30 01:25:42;;;;;;;0.50;0.20;;;6.10;99.90;;;;;;5032664;28;20042;-74
2023/12/30 01:28:08;;;;;;;2.63;0.40;;;6.10;99.90;;;;;;5029402;28;20041;-74
2023/12/30 01:30:36;;;;;;;2.72;0.52;;;6.10;99.90;;;;;;5036935;28;20061;-74
2023/12/30 01:33:02;;;;;;;5.68;0.70;;;6.10;99.90;;;;;;5033398;28;20053;-74
2023/12/30 01:35:28;;;;;;;0.85;0.68;;;6.10;99.90;;;;;;5017021;28;20113;-74
2023/12/30 01:37:54;;;;;;;0.43;0.30;;;6.10;99.90;;;;;;5032464;28;20579;-74
2023/12/30 01:40:20;;;;;;;3.22;0.20;;;6.00;99.90;;;;;;5025273;28;20385;-74
2023/12/30 01:42:46;;;;;;;2.58;0.55;;;5.90;99.90;;;;;;5033680;28;20091;-74
2023/12/30 01:45:12;;;;;;;0.85;0.40;;;5.90;99.90;;;;;;5035453;28;20055;-74
2023/12/30 01:47:39;;;;;;;3.50;0.32;;;5.90;99.90;;;;;;5033260;28;20057;-73
2023/12/30 01:50:05;;;;;;;2.08;1.52;;;5.90;99.90;;;;;;5036934;28;20041;-74
2023/12/30 01:52:33;;;;;;;2.47;0.45;;;5.90;99.90;;;;;;5032975;28;20128;-74
2023/12/30 01:54:59;;;;;;;1.38;0.47;;;5.90;99.90;;;;;;5032525;28;20474;-74
2023/12/30 01:57:25;;;;;;;3.30;0.43;;;6.00;99.90;;;;;;5032656;28;20042;-74
2023/12/30 01:59:52;;;;;;;3.35;0.82;;;6.00;99.90;;;;;;5016787;28;20041;-74
2023/12/30 02:02:18;;;;;;;1.38;1.05;;;6.10;99.90;;;;;;5036893;28;20073;-74
2023/12/30 02:04:44;;;;;;;1.30;0.43;;;6.10;99.90;;;;;;5014935;28;20077;-72
2023/12/30 02:07:09;;;;;;;0.68;0.40;;;6.10;99.90;;;;;;5040439;28;20045;-73
2023/12/30 02:09:36;;;;;;;0.25;0.20;;;6.20;99.90;;;;;;5041057;28;20061;-77
2023/12/30 02:12:03;;;;;;;3.00;0.80;;;6.20;99.90;;;;;;5041041;28;20041;-74
2023/12/30 02:14:30;;;;;;;3.83;1.00;;;6.20;99.90;;;;;;5031744;28;20033;-73
2023/12/30 02:16:57;;;;;;;1.08;0.80;;;6.20;99.90;;;;;;5032399;28;20125;-74
2023/12/30 02:19:23;;;;;;;9.02;0.82;;;6.20;99.90;;;;;;5020085;28;20057;-74
2023/12/30 02:21:50;;;;;;;5.05;0.93;;;6.20;99.90;;;;;;5016079;28;20064;-74
2023/12/30 02:24:16;;;;;;;3.80;0.47;;;6.20;99.90;;;;;;5036612;28;20065;-73
2023/12/30 02:26:42;;;;;;;8.20;0.65;;;6.20;99.90;;;;;;5032717;28;20401;-73
2023/12/30 02:29:08;;;;;;;2.20;0.55;;;6.20;99.90;;;;;;5036097;28;20049;-74
2023/12/30 02:31:45;;;;;;;2.15;0.25;;;6.20;99.90;;;;;;5031939;28;20041;-73
2023/12/30 02:34:13;;;;;;;0.88;0.70;;;6.30;99.90;;;;;;5035942;28;20073;-73
2023/12/30 02:36:39;;;;;;;4.25;0.55;;;6.30;99.90;;;;;;5019204;28;20090;-74
2023/12/30 02:39:04;;;;;;;6.85;0.80;;;6.40;99.90;;;;;;5030431;28;20053;-74
2023/12/30 02:41:30;;;;;;;1.42;0.35;;;6.40;99.90;;;;;;5011554;28;20048;-74
2023/12/30 02:44:03;;;;;;;0.95;0.22;;;6.40;99.90;;;;;;5040348;28;20102;-73
2023/12/30 02:46:30;;;;;;;5.55;0.55;;;6.40;99.90;;;;;;5032354;28;20063;-74
2023/12/30 02:48:57;;;;;;;1.55;1.17;;;6.40;99.90;;;;;;5035615;28;20504;-73
2023/12/30 02:51:23;;;;;;;1.75;0.50;;;6.50;99.90;;;;;;5031899;28;20041;-74
2023/12/30 02:53:49;;;;;;;1.25;0.35;;;6.50;99.90;;;;;;5019186;28;20029;-74
2023/12/30 02:56:33;;;;;;;3.83;0.38;;;6.40;99.90;;;;;;5036165;28;20082;-73
2023/12/30 02:59:00;;;;;;;1.52;0.68;;;6.40;99.90;;;;;;5030335;28;20053;-75
2023/12/30 03:01:29;;;;;;;3.40;0.73;;;6.40;99.90;;;;;;5034662;28;20079;-74
2023/12/30 03:03:58;;;;;;;2.38;0.40;;;6.40;99.90;;;;;;5036065;28;20049;-74
2023/12/30 03:06:25;;;;;;;4.50;0.73;;;6.40;99.90;;;;;;5036059;28;20075;-74
2023/12/30 03:08:51;;;;;;;1.42;0.50;;;6.40;99.90;;;;;;5030717;28;20389;-75
2023/12/30 03:11:17;;;;;;;2.30;0.77;;;6.40;99.90;;;;;;5067709;28;20048;-74
2023/12/30 03:13:44;;;;;;;1.65;0.63;;;6.40;99.90;;;;;;5031155;28;20029;-74
2023/12/30 03:16:15;;;;;;;0.20;0.20;;;6.40;99.90;;;;;;5014669;28;20488;-74
2023/12/30 03:18:42;;;;;;;5.03;0.45;;;6.40;99.90;;;;;;5037313;28;20037;-74
2023/12/30 03:21:10;;;;;;;1.65;1.13;;;6.40;99.90;;;;;;5073053;28;20661;-74
2023/12/30 03:23:37;;;;;;;2.55;0.43;;;6.40;99.90;;;;;;5035180;28;20076;-73
2023/12/30 03:26:04;;;;;;;0.40;0.40;;;6.50;99.90;;;;;;5035289;28;20033;-73
2023/12/30 03:28:30;;;;;;;1.08;0.30;;;6.50;99.90;;;;;;5031060;28;20115;-74
2023/12/30 03:30:55;;;;;;;4.20;0.45;;;6.50;99.90;;;;;;5039436;28;20040;-75
2023/12/30 03:33:22;;;;;;;5.57;0.95;;;6.40;99.90;;;;;;5030954;28;20115;-74
2023/12/30 03:35:48;;;;;;;2.67;0.68;;;6.40;99.90;;;;;;5014816;28;20080;-74
2023/12/30 03:38:13;;;;;;;3.40;0.95;;;6.30;99.90;;;;;;5030218;28;20072;-73
2023/12/30 03:40:39;;;;;;;1.13;0.43;;;6.30;99.90;;;;;;5046537;28;20095;-74
2023/12/30 03:43:05;;;;;;;2.35;1.40;;;6.20;99.90;;;;;;5035059;28;20040;-75
2023/12/30 03:45:31;;;;;;;5.53;0.60;;;6.30;99.90;;;;;;5030635;28;20576;-75
2023/12/30 03:47:57;;;;;;;3.15;0.60;;;6.20;99.90;;;;;;5031970;28;20068;-74
2023/12/30 03:50:22;;;;;;;4.18;0.70;;;6.20;99.90;;;;;;5033339;28;20091;-74
2023/12/30 03:52:50;;;;;;;4.18;0.47;;;6.20;99.90;;;;;;5039416;28;20037;-73
2023/12/30 03:55:16;;;;;;;1.63;0.70;;;6.20;99.90;;;;;;5030570;28;20106;-73
2023/12/30 03:57:41;;;;;;;0.40;0.32;;;6.10;99.90;;;;;;5034821;28;20495;-72
2023/12/30 04:00:07;;;;;;;1.42;0.50;;;6.10;99.90;;;;;;5018453;28;20041;-72
2023/12/30 04:02:33;;;;;;;2.40;0.90;;;6.10;99.90;;;;;;5017844;28;20094;-73
2023/12/30 04:04:59;;;;;;;5.40;0.45;;;6.00;99.90;;;;;;5030391;28;20049;-71
2023/12/30 04:07:25;;;;;;;4.05;0.45;;;6.00;99.90;;;;;;5028574;28;20052;-74
2023/12/30 04:09:50;;;;;;;4.45;1.13;;;6.00;99.90;;;;;;5029280;28;20045;-72
2023/12/30 04:12:16;;;;;;;1.95;0.77;;;6.00;99.90;;;;;;5025579;28;20032;-72
2023/12/30 04:14:43;;;;;;;4.60;1.10;;;6.00;99.90;;;;;;5030680;28;20048;-72
2023/12/30 04:17:09;;;;;;;1.35;0.65;;;5.90;99.90;;;;;;5038442;28;20459;-72
2023/12/30 04:19:35;;;;;;;1.73;0.68;;;5.90;99.90;;;;;;5038815;28;20474;-70
2023/12/30 04:22:01;;;;;;;3.22;0.60;;;5.90;99.90;;;;;;5030480;28;20053;-70
2023/12/30 04:24:27;;;;;;;0.73;0.15;;;5.90;99.90;;;;;;5030565;28;20060;-71
2023/12/30 04:26:53;;;;;;;0.38;0.30;;;5.90;99.90;;;;;;5034490;28;20033;-71
2023/12/30 04:29:19;;;;;;;1.75;0.35;;;5.90;99.90;;;;;;5029829;28;20033;-72
2023/12/30 04:31:44;;;;;;;9.90;0.90;;;5.90;99.90;;;;;;5037454;28;20033;-73
2023/12/30 04:34:10;;;;;;;0.95;0.43;;;5.90;99.90;;;;;;5030552;28;20144;-73
2023/12/30 04:36:36;;;;;;;2.42;0.35;;;5.90;99.90;;;;;;5035981;28;20095;-72
2023/12/30 04:39:01;;;;;;;2.50;0.50;;;5.80;99.90;;;;;;5013053;28;20041;-73
2023/12/30 04:41:28;;;;;;;4.43;0.70;;;5.80;99.90;;;;;;5012947;28;20041;-73
2023/12/30 04:43:54;;;;;;;8.15;0.95;;;5.80;99.90;;;;;;5029970;28;20053;-73
2023/12/30 04:46:20;;;;;;;1.65;0.28;;;5.80;99.90;;;;;;5029935;28;20041;-72
2023/12/30 04:48:48;;;;;;;2.83;0.70;;;5.80;99.90;;;;;;5071306;28;20488;-73
2023/12/30 04:51:14;;;;;;;4.20;0.75;;;5.80;99.90;;;;;;5029753;28;20033;-72
2023/12/30 04:53:40;;;;;;;4.05;0.40;;;5.80;99.90;;;;;;5029716;28;20159;-72
2023/12/30 04:56:08;;;;;;;3.10;0.60;;;5.80;99.90;;;;;;5030079;28;20038;-72
2023/12/30 04:58:34;;;;;;;1.08;0.55;;;5.90;99.90;;;;;;5031023;28;20038;-73
2023/12/30 05:00:59;;;;;;;3.72;1.23;;;5.90;99.90;;;;;;5030791;28;20187;-73
2023/12/30 05:03:25;;;;;;;3.60;1.13;;;5.80;99.90;;;;;;5016253;28;20045;-72
2023/12/30 05:05:51;;;;;;;7.03;0.60;;;5.80;99.90;;;;;;5029888;28;20037;-73
2023/12/30 05:08:17;;;;;;;1.10;0.40;;;5.80;99.90;;;;;;5028976;28;20536;-73
2023/12/30 05:10:43;;;;;;;3.30;0.40;;;5.80;99.90;;;;;;5032955;28;20071;-73
2023/12/30 05:13:09;;;;;;;7.30;1.17;;;5.70;99.90;;;;;;5029923;28;20041;-73
2023/12/30 05:15:34;;;;;;;0.73;0.45;;;5.80;99.90;;;;;;5013602;28;20033;-73
2023/12/30 05:18:00;;;;;;;0.90;0.30;;;5.80;99.90;;;;;;5013501;28;20050;-71
2023/12/30 05:20:26;;;;;;;4.95;0.98;;;5.80;99.90;;;;;;5029896;28;20107;-72
2023/12/30 05:22:52;;;;;;;10.80;1.17;;;5.80;99.90;;;;;;5029101;28;20041;-73
2023/12/30 05:25:18;;;;;;;9.45;1.17;;;5.90;99.90;;;;;;5028961;28;20033;-72
2023/12/30 05:27:44;;;;;;;3.28;0.63;;;6.00;99.90;;;;;;5029961;28;20071;-72
2023/12/30 05:30:10;;;;;;;11.30;0.77;;;6.00;99.90;;;;;;5029124;28;20046;-73
2023/12/30 05:32:36;;;;;;;4.65;0.68;;;6.00;99.90;;;;;;5029585;28;20034;-74
2023/12/30 05:35:02;;;;;;;5.68;0.50;;;6.10;99.90;;;;;;5028887;28;20045;-73
2023/12/30 05:37:27;;;;;;;1.38;0.40;;;6.10;99.90;;;;;;5032018;28;20037;-73
2023/12/30 05:39:53;;;;;;;3.65;0.50;;;6.10;99.90;;;;;;5027963;28;20103;-72
2023/12/30 05:42:19;;;;;;;2.58;0.88;;;6.10;99.90;;;;;;5016368;28;20033;-72
2023/12/30 05:44:47;;;;;;;0.55;0.47;;;6.20;99.90;;;;;;5033158;28;20103;-72
2023/12/30 05:47:12;;;;;;;4.28;0.50;;;6.20;99.90;;;;;;5019208;28;20041;-72
2023/12/30 05:49:40;;;;;;;3.00;0.70;;;6.30;99.90;;;;;;5038375;28;20485;-73
2023/12/30 05:52:07;;;;;;;2.10;0.50;;;6.30;99.90;;;;;;5033234;28;20608;-73
2023/12/30 05:54:33;;;;;;;2.67;0.55;;;6.40;99.90;;;;;;5031902;28;20406;-73
2023/12/30 05:57:00;;;;;;;4.40;0.47;;;6.30;99.90;;;;;;5032542;28;20053;-73
2023/12/30 05:59:26;;;;;;;3.17;0.43;;;6.20;99.90;;;;;;5030829;28;20426;-72
2023/12/30 06:01:52;;;;;;;3.10;1.23;;;6.20;99.90;;;;;;5036856;28;20489;-72
2023/12/30 06:04:18;;;;;;;0.77;0.38;;;6.30;99.90;;;;;;5031878;28;20553;-73
2023/12/30 06:06:44;;;;;;;0.90;0.40;;;6.20;99.90;;;;;;5030458;28;20152;-76
2023/12/30 06:09:11;;;;;;;0.65;0.63;;;6.20;99.90;;;;;;5018959;28;20064;-72
2023/12/30 06:11:37;;;;;;;4.97;0.75;;;6.20;99.90;;;;;;5032452;28;20048;-74
2023/12/30 06:14:03;;;;;;;3.10;0.75;;;6.10;99.90;;;;;;5031994;28;20041;-73
2023/12/30 06:16:29;;;;;;;4.32;0.60;;;6.10;99.90;;;;;;5037421;28;20124;-74
2023/12/30 06:18:55;;;;;;;9.20;0.95;;;6.20;99.90;;;;;;5036315;28;20128;-72
2023/12/30 06:21:20;;;;;;;7.45;0.38;;;6.20;99.90;;;;;;5032583;28;20037;-73
2023/12/30 06:23:47;;;;;;;6.82;0.70;;;6.30;99.90;;;;;;5031875;28;20173;-72
2023/12/30 06:26:13;;;;;;;5.50;0.82;;;6.30;99.90;;;;;;5032211;28;20033;-72
2023/12/30 06:28:39;;;;;;;3.63;0.73;;;6.30;99.90;;;;;;5031962;28;20037;-74
2023/12/30 06:31:05;;;;;;;4.78;0.65;;;6.30;99.90;;;;;;5032979;28;20049;-73
2023/12/30 06:33:31;;;;;;;2.28;0.30;;;6.30;99.90;;;;;;5038635;28;20051;-72
2023/12/30 06:35:57;;;;;;;3.67;1.52;;;6.20;99.90;;;;;;5035770;28;20047;-72
2023/12/30 06:38:22;;;;;;;4.65;0.80;;;6.20;99.90;;;;;;5027277;28;20037;-73
2023/12/30 06:40:48;;;;;;;4.07;1.10;;;6.20;99.90;;;;;;5062625;28;20041;-73
2023/12/30 06:43:14;;;;;;;1.48;0.82;;;6.20;99.90;;;;;;5031728;28;20053;-73
2023/12/30 06:45:40;;;;;;;0.90;0.47;;;6.30;99.90;;;;;;5017067;28;20037;-73
2023/12/30 06:48:06;;;;;;;6.10;0.60;;;6.30;99.90;;;;;;5035132;28;20436;-72
2023/12/30 06:50:32;;;;;;;7.70;0.60;;;6.20;99.90;;;;;;5017477;28;20072;-72
2023/12/30 06:52:58;;;;;;;4.25;0.57;;;6.20;99.90;;;;;;5028174;28;20045;-73
2023/12/30 06:55:24;;;;;;;5.35;1.27;;;6.20;99.90;;;;;;5031069;28;20033;-73
2023/12/30 06:57:50;;;;;;;2.92;1.27;;;6.20;99.90;;;;;;5031573;28;20041;-72
2023/12/30 07:00:16;;;;;;;2.30;0.63;;;6.20;99.90;;;;;;5031251;28;20049;-72
2023/12/30 07:02:44;;;;;;;2.60;0.68;;;6.10;99.90;;;;;;5014511;28;20120;-72
2023/12/30 07:05:10;;;;;;;9.65;0.52;;;6.10;99.90;;;;;;5040000;28;20579;-72
2023/12/30 07:07:36;;;;;;;0.52;0.38;;;6.00;99.90;;;;;;5035634;28;20096;-72
2023/12/30 07:10:05;;;;;;;6.53;0.73;;;5.90;99.90;;;;;;5014443;28;20041;-72
2023/12/30 07:12:31;;;;;;;1.25;0.50;;;5.90;99.90;;;;;;5065455;28;20033;-72
2023/12/30 07:14:57;;;;;;;8.27;0.98;;;5.80;99.90;;;;;;5031601;28;20651;-73
2023/12/30 07:17:23;;;;;;;5.03;1.85;;;5.80;99.90;;;;;;5031082;28;20069;-72
2023/12/30 07:19:49;;;;;;;3.97;0.50;;;5.80;99.90;;;;;;5036922;28;20056;-72
2023/12/30 07:22:18;;;;;;;1.13;0.32;;;5.80;99.90;;;;;;5031301;28;20124;-72
2023/12/30 07:24:45;;;;;;;1.95;0.70;;;5.70;99.90;;;;;;5015025;28;20111;-72
2023/12/30 07:27:11;;;;;;;2.08;0.30;;;5.70;99.90;;;;;;5028704;28;20552;-72
2023/12/30 07:29:37;;;;;;;0.40;0.13;;;5.60;99.90;;;;;;5031274;28;20034;-72
2023/12/30 07:32:03;;;;;;;2.67;0.70;;;5.60;99.90;;;;;;5030340;28;20500;-72
2023/12/30 07:34:29;;;;;;;4.60;1.08;;;5.60;99.90;;;;;;5035788;28;20029;-72
2023/12/30 07:36:56;;;;;;;3.90;0.63;;;5.50;99.90;;;;;;5034013;28;20114;-72
2023/12/30 07:39:22;;;;;;;3.88;0.80;;;5.50;99.90;;;;;;5023162;28;20049;-71
2023/12/30 07:41:48;;;;;;;0.30;0.30;;;5.40;99.90;;;;;;5062319;28;20041;-72
2023/12/30 07:44:14;;;;;;;1.60;1.08;;;5.40;99.90;;;;;;5030829;28;20452;-71
2023/12/30 07:46:40;;;;;;;2.97;0.52;;;5.40;99.90;;;;;;5029734;28;20504;-72
2023/12/30 07:49:07;;;;;;;0.40;0.40;;;5.40;99.90;;;;;;5035246;28;20045;-72
2023/12/30 07:51:32;;;;;;;1.58;0.63;;;5.40;99.90;;;;;;5027338;28;20046;-72
2023/12/30 07:53:58;;;;;;;0.28;0.25;;;5.40;99.90;;;;;;5029910;28;20041;-72
2023/12/30 07:56:24;;;;;;;2.50;0.47;;;5.40;99.90;;;;;;5031178;28;20029;-73
2023/12/30 07:58:49;;;;;;;1.48;0.43;;;5.40;99.90;;;;;;5018365;28;20069;-75
2023/12/30 08:01:15;;;;;;;1.02;0.40;;;5.40;99.90;;;;;;5034049;28;20478;-75
2023/12/30 08:03:41;;;;;;;1.92;0.77;;;5.40;99.90;;;;;;5029474;28;20397;-75
2023/12/30 08:06:07;;;;;;;1.63;0.75;;;5.50;99.90;;;;;;5034434;28;20036;-75
2023/12/30 08:08:33;;;;;;;1.15;0.38;;;5.50;99.90;;;;;;5032950;28;20401;-76
2023/12/30 08:10:59;;;;;;;3.80;1.05;;;5.50;99.90;;;;;;5037363;28;20041;-76
2023/12/30 08:13:25;;;;;;;4.22;0.52;;;5.50;99.90;;;;;;5033861;28;20120;-76
2023/12/30 08:15:51;;;;;;;3.05;0.57;;;5.50;99.90;;;;;;5031473;28;20037;-74
2023/12/30 08:18:17;;;;;;;0.70;0.40;;;5.50;99.90;;;;;;5013992;28;20124;-74
2023/12/30 08:20:43;;;;;;;3.00;0.65;;;5.60;99.90;;;;;;5030542;28;20041;-72
2023/12/30 08:23:08;;;;;;;2.08;0.50;;;5.60;99.90;;;;;;5029603;28;20710;-74
2023/12/30 08:25:34;;;;;;;0.45;0.30;;;5.70;99.90;;;;;;5014725;28;20033;-74
2023/12/30 08:28:00;;;;;;;5.82;0.90;;;5.70;99.90;;;;;;5030249;28;20041;-74
2023/12/30 08:30:26;;;;;;;2.33;0.50;;;5.70;99.90;;;;;;5029479;28;20444;-75
2023/12/30 08:32:51;;;;;;;2.50;0.40;;;5.80;99.90;;;;;;5028867;28;20045;-74
2023/12/30 08:35:17;;;;;;;0.60;0.28;;;5.80;99.90;;;;;;5010458;28;20041;-75
2023/12/30 08:37:43;;;;;;;9.95;0.60;;;5.90;99.90;;;;;;5028968;28;20044;-75
2023/12/30 08:40:10;;;;;;;5.78;0.82;;;6.00;99.90;;;;;;5054074;28;20048;-75
2023/12/30 08:42:37;;;;;;;5.07;0.70;;;6.00;99.90;;;;;;5030458;28;20050;-75
2023/12/30 08:45:06;;;;;;;0.93;0.40;;;6.10;99.90;;;;;;5033550;28;20073;-74
2023/12/30 08:47:34;;;;;;;1.85;0.60;;;6.30;99.90;;;;;;5029281;28;20680;-75
2023/12/30 08:50:00;;;;;;;10.23;0.93;;;6.30;99.90;;;;;;5038216;28;20049;-73
2023/12/30 08:52:26;;;;;;;4.70;1.00;;;6.50;99.90;;;;;;5021748;28;20041;-75
2023/12/30 08:54:52;;;;;;;1.20;1.10;;;6.60;99.90;;;;;;5039105;28;20111;-75
2023/12/30 08:57:18;;;;;;;0.82;0.20;;;6.80;99.90;;;;;;5050352;28;20033;-74
2023/12/30 08:59:44;;;;;;;2.22;0.68;;;6.90;99.90;;;;;;5023815;28;20107;-74
2023/12/30 09:02:09;;;;;;;0.85;0.38;;;7.00;99.90;;;;;;5006377;28;20320;-75
2023/12/30 09:04:35;;;;;;;1.23;0.50;;;7.10;99.90;;;;;;5022853;28;20496;-75
2023/12/30 09:07:01;;;;;;;1.10;0.25;;;7.30;99.90;;;;;;5021386;28;20540;-74
2023/12/30 09:09:27;;;;;;;4.20;1.05;;;7.40;99.90;;;;;;5021521;28;20132;-75
2023/12/30 09:11:52;;;;;;;0.22;0.17;;;7.60;99.90;;;;;;5019816;28;20053;-74
2023/12/30 09:14:19;;;;;;;5.07;0.93;;;7.80;99.90;;;;;;5023389;28;20038;-76
2023/12/30 09:16:45;;;;;;;3.53;0.88;;;7.90;99.90;;;;;;5026724;28;20081;-75
2023/12/30 09:19:11;;;;;;;1.95;0.90;;;8.00;99.90;;;;;;5003636;28;20073;-75
2023/12/30 09:21:36;;;;;;;4.38;1.48;;;8.20;99.90;;;;;;5009679;28;20041;-74
2023/12/30 09:24:02;;;;;;;0.82;0.50;;;8.20;99.90;;;;;;5025907;28;20051;-76
2023/12/30 09:26:28;;;;;;;8.25;0.68;;;8.30;99.90;;;;;;5008313;28;20034;-75
2023/12/30 09:28:54;;;;;;;3.65;1.20;;;8.50;99.90;;;;;;5026461;28;20436;-76
2023/12/30 09:31:20;;;;;;;4.15;0.88;;;8.70;99.90;;;;;;5007329;28;20074;-76
2023/12/30 09:33:48;;;;;;;4.10;0.90;;;8.90;99.90;;;;;;5050698;28;20042;-76
2023/12/30 09:36:16;;;;;;;5.45;0.80;;;9.10;99.90;;;;;;5050082;28;20064;-76
2023/12/30 09:38:42;;;;;;;3.42;0.73;;;9.30;99.90;;;;;;5018629;28;20561;-76
2023/12/30 09:41:08;;;;;;;14.48;1.00;;;9.70;99.90;;;;;;5050790;28;20120;-75
2023/12/30 09:43:36;;;;;;;2.97;0.52;;;9.90;99.90;;;;;;5039705;28;20091;-76
2023/12/30 09:46:03;;;;;;;5.72;1.00;;;10.00;99.90;;;;;;5025075;28;20045;-76
2023/12/30 09:48:30;;;;;;;1.52;0.47;;;10.20;99.90;;;;;;5018474;28;20045;-76
2023/12/30 09:50:57;;;;;;;2.00;0.68;;;10.40;99.90;;;;;;5040943;28;20045;-76
2023/12/30 09:53:26;;;;;;;4.35;1.13;;;10.60;99.90;;;;;;5041263;28;20413;-76
2023/12/30 09:55:53;;;;;;;5.90;0.60;;;10.80;99.90;;;;;;5052748;28;20033;-76
2023/12/30 09:58:20;;;;;;;3.05;0.45;;;10.90;99.90;;;;;;5025946;28;20458;-77
2023/12/30 10:00:46;;;;;;;2.22;0.82;;;11.00;99.90;;;;;;5018230;28;20033;-77
2023/12/30 10:03:14;;;;;;;2.17;0.82;;;11.30;99.90;;;;;;4999768;28;20042;-76
2023/12/30 10:05:41;;;;;;;3.72;0.40;;;11.60;99.90;;;;;;5008770;28;20493;-76
2023/12/30 10:08:07;;;;;;;0.73;0.40;;;11.90;99.90;;;;;;5017602;28;20666;-78
2023/12/30 10:10:54;;;;;;;3.85;0.85;;;12.30;99.90;;;;;;5016772;28;20056;-77
2023/12/30 10:13:25;;;;;;;3.03;0.50;;;12.60;99.90;;;;;;5006406;28;20041;-77
2023/12/30 10:15:53;;;;;;;2.05;0.20;;;13.00;99.90;;;;;;5024508;28;20045;-78
2023/12/30 10:18:22;;;;;;;3.05;0.98;;;13.20;99.90;;;;;;5018754;28;20056;-76
2023/12/30 10:20:48;;;;;;;0.65;0.30;;;13.30;99.90;;;;;;5019787;28;20116;-74
2023/12/30 10:23:14;;;;;;;7.32;1.45;;;13.30;99.90;;;;;;5019925;28;20053;-76
2023/12/30 10:25:41;;;;;;;3.28;0.70;;;13.40;99.90;;;;;;5050656;28;20041;-75
2023/12/30 10:28:07;;;;;;;8.88;0.85;;;13.30;99.90;;;;;;5041075;28;20056;-74
2023/12/30 10:30:33;;;;;;;1.55;0.70;;;13.20;99.90;;;;;;5007551;28;20119;-76
2023/12/30 10:33:09;;;;;;;2.35;0.88;;;13.10;99.90;;;;;;5052078;28;20067;-75
2023/12/30 10:35:35;;;;;;;4.13;0.98;;;13.20;99.90;;;;;;5024687;28;20164;-75
2023/12/30 10:38:03;;;;;;;8.77;1.77;;;13.20;99.90;;;;;;5023285;28;20116;-73
2023/12/30 10:40:29;;;;;;;5.47;1.65;;;13.20;99.90;;;;;;5052728;28;20048;-75
2023/12/30 10:42:55;;;;;;;7.60;1.90;;;13.00;99.90;;;;;;5024728;28;20068;-76
2023/12/30 10:45:21;;;;;;;4.25;1.65;;;12.90;99.90;;;;;;5042237;28;20045;-75
2023/12/30 10:47:50;;;;;;;9.35;2.90;;;12.80;99.90;;;;;;5020280;28;20049;-74
2023/12/30 10:50:15;;;;;;;3.00;1.30;;;12.40;99.90;;;;;;5019833;28;20053;-75
2023/12/30 10:52:50;;;;;;;2.88;0.95;;;11.90;99.90;;;;;;5008122;28;20045;-75
2023/12/30 10:55:17;;;;;;;3.53;0.80;;;11.30;99.90;;;;;;5053130;28;20575;-75
2023/12/30 10:57:57;;;;;;;8.48;1.10;;;10.80;99.90;;;;;;5019388;28;20042;-75
2023/12/30 11:00:24;;;;;;;8.73;2.30;;;10.40;99.90;;;;;;5040625;28;20056;-76
2023/12/30 11:02:51;;;;;;;6.88;2.72;;;10.20;99.90;;;;;;5052901;28;20049;-75
2023/12/30 11:05:34;;;;;;;3.80;1.58;;;10.00;99.90;;;;;;5022994;28;20041;-75
2023/12/30 11:08:00;;;;;;;4.00;1.38;;;10.00;99.90;;;;;;5022540;28;20054;-75
2023/12/30 11:10:26;;;;;;;4.70;2.10;;;10.50;99.90;;;;;;5021445;28;20398;-75
2023/12/30 11:12:53;;;;;;;5.32;1.08;;;10.90;99.90;;;;;;5021844;28;20061;-76
2023/12/30 11:15:28;;;;;;;4.10;0.60;;;11.40;99.90;;;;;;5024659;28;20416;-75
2023/12/30 11:17:56;;;;;;;6.15;0.85;;;11.80;99.90;;;;;;5056357;28;20088;-75
2023/12/30 11:20:30;;;;;;;2.13;0.68;;;12.00;99.90;;;;;;5022961;28;20107;-75
2023/12/30 11:23:04;;;;;;;5.88;0.82;;;11.90;99.90;;;;;;5019723;28;20532;-74
2023/12/30 11:25:37;;;;;;;2.22;0.90;;;11.60;99.90;;;;;;5039358;28;20033;-74
2023/12/30 11:28:17;;;;;;;7.15;1.98;;;11.30;99.90;;;;;;5006175;28;20052;-75
2023/12/30 11:30:45;;;;;;;3.13;1.05;;;11.00;99.90;;;;;;5053595;28;20481;-75
2023/12/30 11:33:13;;;;;;;5.30;1.33;;;10.70;99.90;;;;;;5020816;28;20060;-74
2023/12/30 11:35:39;;;;;;;3.40;1.35;;;10.40;99.90;;;;;;5021204;28;20374;-74
2023/12/30 11:38:09;;;;;;;4.15;0.65;;;10.20;99.90;;;;;;5022903;28;20045;-74
2023/12/30 11:40:42;;;;;;;4.28;1.10;;;10.00;99.90;;;;;;5019275;28;20052;-75
2023/12/30 11:43:10;;;;;;;3.30;1.13;;;9.80;99.90;;;;;;5018817;28;20042;-74
2023/12/30 11:45:37;;;;;;;2.35;0.95;;;9.60;99.90;;;;;;5023376;28;20083;-74
2023/12/30 11:48:03;;;;;;;1.60;0.77;;;9.50;99.90;;;;;;5005240;28;20045;-74
2023/12/30 11:50:29;;;;;;;5.88;1.75;;;9.50;99.90;;;;;;5020803;28;20037;-75
2023/12/30 11:52:56;;;;;;;2.92;0.95;;;9.70;99.90;;;;;;5004961;28;25352;-75
2023/12/30 11:55:24;;;;;;;4.88;0.95;;;9.90;99.90;;;;;;5054775;28;20117;-75
2023/12/30 11:57:51;;;;;;;4.97;0.90;;;10.00;99.90;;;;;;5024395;28;20485;-75
2023/12/30 12:00:17;;;;;;;1.23;0.50;;;9.90;99.90;;;;;;5023216;28;20416;-73
2023/12/30 12:02:43;;;;;;;2.25;0.80;;;9.80;99.90;;;;;;5016655;28;20107;-73
2023/12/30 12:05:09;;;;;;;3.78;1.58;;;9.70;99.90;;;;;;5022746;28;20049;-74
2023/12/30 12:07:34;;;;;;;3.88;0.90;;;9.70;99.90;;;;;;5016064;28;20156;-74
2023/12/30 12:10:00;;;;;;;6.28;0.85;;;9.50;99.90;;;;;;5047397;28;20048;-74
2023/12/30 12:12:35;;;;;;;4.00;1.70;;;9.50;99.90;;;;;;5022418;28;20038;-75
2023/12/30 12:15:02;;;;;;;8.57;2.92;;;9.50;99.90;;;;;;5014709;28;20116;-74
2023/12/30 12:17:30;;;;;;;6.35;1.98;;;9.50;99.90;;;;;;5051956;28;20038;-75
2023/12/30 12:19:57;;;;;;;4.13;1.58;;;9.60;99.90;;;;;;5017016;28;20045;-74
2023/12/30 12:22:23;;;;;;;4.22;1.08;;;9.60;99.90;;;;;;5020714;28;20360;-72
2023/12/30 12:24:49;;;;;;;4.80;1.55;;;9.60;99.90;;;;;;5022032;28;20055;-72
2023/12/30 12:27:22;;;;;;;4.50;0.93;;;9.60;99.90;;;;;;5014824;28;20034;-72
2023/12/30 12:29:52;;;;;;;3.88;1.10;;;9.50;99.90;;;;;;5017710;28;20046;-74
2023/12/30 12:32:20;;;;;;;7.00;0.68;;;9.50;99.90;;;;;;5015809;28;20037;-73
2023/12/30 12:34:47;;;;;;;3.38;1.27;;;9.40;99.90;;;;;;5017935;28;20041;-73
2023/12/30 12:37:15;;;;;;;5.32;1.27;;;9.20;99.90;;;;;;5020479;28;20087;-73
2023/12/30 12:39:45;;;;;;;3.45;0.90;;;9.20;99.90;;;;;;5017110;28;20508;-73
2023/12/30 12:42:11;;;;;;;;;;;9.10;99.90;;;;;;5048350;28;20460;-74
2023/12/30 12:44:38;;;;;;;2.78;0.70;;;9.00;99.90;;;;;;5048240;28;19999;-73
2023/12/30 12:47:04;;;;;;;7.97;1.83;;;9.00;99.90;;;;;;5052040;28;20041;-75
2023/12/30 12:49:30;;;;;;;6.20;1.27;;;9.00;99.90;;;;;;5051523;28;20054;-73
2023/12/30 12:51:56;;;;;;;11.05;3.15;;;9.00;99.90;;;;;;5007104;28;20096;-72
2023/12/30 12:54:21;;;;;;;8.90;2.03;;;9.00;99.90;;;;;;5052432;28;20038;-73